createdAt,value
2023-04-06T00:03:44.637Z,5.10
2023-04-06T00:08:46.284Z,3.50
2023-04-06T00:13:47.848Z,5.30
2023-04-06T00:18:49.364Z,4.80
2023-04-06T00:23:50.962Z,6.10
2023-04-06T00:28:53.524Z,4.50
2023-04-06T00:33:55.426Z,5.30
2023-04-06T00:38:57.182Z,3.60
2023-04-06T00:43:58.952Z,3.40
2023-04-06T00:49:00.545Z,4.20
2023-04-06T00:54:02.104Z,4.60
2023-04-06T00:59:04.020Z,4.50
2023-04-06T01:04:05.615Z,4.10
2023-04-06T01:09:07.531Z,4.00
2023-04-06T01:14:09.476Z,4.20
2023-04-06T01:19:12.706Z,3.90
2023-04-06T01:24:14.214Z,3.50
2023-04-06T01:29:15.864Z,3.70
2023-04-06T01:34:17.737Z,3.70
2023-04-06T01:39:20.592Z,4.40
2023-04-06T01:44:22.115Z,3.40
2023-04-06T01:49:23.753Z,3.00
2023-04-06T01:54:25.258Z,4.00
2023-04-06T01:59:26.885Z,4.30
2023-04-06T02:04:28.584Z,4.40
2023-04-06T02:09:30.587Z,3.30
2023-04-06T02:14:32.204Z,4.40
2023-04-06T02:19:33.733Z,3.50
2023-04-06T02:24:35.357Z,4.30
2023-04-06T02:29:36.938Z,3.60
2023-04-06T02:34:38.459Z,6.10
2023-04-06T02:39:39.969Z,4.60
2023-04-06T02:44:41.607Z,3.50
2023-04-06T02:49:43.128Z,4.10
2023-04-06T02:54:44.824Z,5.00
2023-04-06T02:59:46.368Z,5.00
2023-04-06T03:04:48.583Z,4.10
2023-04-06T03:09:50.138Z,4.00
2023-04-06T03:14:51.761Z,4.20
2023-04-06T03:19:53.363Z,3.90
2023-04-06T03:24:54.869Z,4.00
2023-04-06T03:29:56.408Z,4.20
2023-04-06T03:34:57.958Z,3.90
2023-04-06T03:39:59.476Z,5.10
2023-04-06T03:45:01.109Z,4.30
2023-04-06T03:50:03.812Z,5.50
2023-04-06T03:55:06.307Z,4.20
2023-04-06T04:00:08.827Z,4.40
2023-04-06T04:05:10.739Z,3.50
2023-04-06T04:10:12.349Z,3.40
2023-04-06T04:15:13.957Z,4.90
2023-04-06T04:20:16.690Z,5.10
2023-04-06T04:25:18.185Z,3.50
2023-04-06T04:30:26.646Z,4.40
2023-04-06T04:35:28.640Z,5.80
2023-04-06T04:40:30.600Z,4.90
2023-04-06T04:45:32.300Z,5.00
2023-04-06T04:50:33.859Z,4.60
2023-04-06T04:55:35.371Z,4.80
2023-04-06T05:00:38.347Z,4.50
2023-04-06T05:05:39.877Z,4.00
2023-04-06T05:10:41.606Z,7.40
2023-04-06T05:15:43.544Z,3.80
2023-04-06T05:20:45.091Z,5.40
2023-04-06T05:25:46.822Z,4.80
2023-04-06T05:30:48.523Z,4.20
2023-04-06T05:35:50.059Z,3.60
2023-04-06T05:40:51.569Z,4.60
2023-04-06T05:45:53.074Z,7.00
2023-04-06T05:50:56.194Z,2.90
2023-04-06T05:55:57.734Z,3.50
2023-04-06T06:01:04.014Z,4.70
2023-04-06T06:06:06.163Z,5.50
2023-04-06T06:11:07.733Z,3.80
2023-04-06T06:16:09.264Z,5.30
2023-04-06T06:21:12.989Z,3.70
2023-04-06T06:26:14.700Z,4.20
2023-04-06T06:31:17.205Z,4.40
2023-04-06T06:36:19.198Z,4.90
2023-04-06T06:41:20.883Z,5.20
2023-04-06T06:46:23.053Z,4.40
2023-04-06T06:51:24.678Z,4.20
2023-04-06T06:56:27.770Z,3.60
2023-04-06T07:01:29.421Z,4.60
2023-04-06T07:06:31.049Z,2.70
2023-04-06T07:11:32.630Z,2.90
2023-04-06T07:16:34.166Z,3.40
2023-04-06T07:21:36.403Z,3.20
2023-04-06T07:26:37.905Z,2.90
2023-04-06T07:31:39.617Z,3.50
2023-04-06T07:36:41.224Z,4.60
2023-04-06T07:41:42.768Z,4.00
2023-04-06T07:46:44.491Z,3.40
2023-04-06T07:51:46.055Z,3.20
2023-04-06T07:56:47.563Z,2.70
2023-04-06T08:01:49.796Z,3.30
2023-04-06T08:06:51.332Z,3.80
2023-04-06T08:11:52.868Z,3.00
2023-04-06T08:16:54.481Z,2.90
2023-04-06T08:21:56.334Z,3.40
2023-04-06T08:26:57.901Z,3.50
2023-04-06T08:31:59.531Z,4.20
2023-04-06T08:37:01.489Z,4.20
2023-04-06T08:42:04.117Z,3.40
2023-04-06T08:47:06.661Z,3.00
2023-04-06T08:52:11.894Z,3.40
2023-04-06T08:57:13.926Z,3.80
2023-04-06T09:02:18.734Z,3.60
2023-04-06T09:07:33.236Z,3.50
2023-04-06T09:12:36.749Z,3.50
2023-04-06T09:17:38.367Z,3.30
2023-04-06T09:22:42.422Z,4.10
2023-04-06T09:27:45.495Z,3.60
2023-04-06T09:32:51.715Z,4.70
2023-04-06T09:37:54.355Z,2.90
2023-04-06T09:42:58.581Z,3.90
2023-04-06T09:48:01.026Z,3.30
2023-04-06T09:53:04.015Z,3.20
2023-04-06T09:58:08.037Z,3.90
2023-04-06T10:03:30.381Z,3.30
2023-04-06T10:08:34.402Z,2.70
2023-04-06T10:13:36.079Z,3.90
2023-04-06T10:18:40.608Z,3.80
2023-04-06T10:23:45.162Z,4.10
2023-04-06T10:28:47.846Z,3.30
2023-04-06T10:34:00.916Z,3.00
2023-04-06T10:39:04.668Z,2.90
2023-04-06T10:44:06.439Z,5.40
2023-04-06T10:49:15.440Z,4.60
2023-04-06T10:54:17.938Z,5.40
2023-04-06T10:59:22.742Z,4.80
2023-04-06T11:04:26.173Z,5.20
2023-04-06T11:09:29.896Z,5.50
2023-04-06T11:14:31.963Z,2.70
2023-04-06T11:19:34.371Z,6.50
2023-04-06T11:24:35.921Z,4.70
2023-04-06T11:29:39.153Z,5.40
2023-04-06T11:34:42.025Z,3.60
2023-04-06T11:39:51.780Z,4.20
2023-04-06T11:44:56.130Z,3.90
2023-04-06T11:50:10.355Z,4.00
2023-04-06T11:55:13.625Z,4.10
2023-04-06T12:00:16.638Z,3.60
2023-04-06T12:05:18.578Z,4.00
2023-04-06T12:10:20.183Z,4.80
2023-04-06T12:15:21.752Z,4.90
2023-04-06T12:20:26.883Z,5.30
2023-04-06T12:25:30.054Z,5.80
2023-04-06T12:30:39.691Z,3.50
2023-04-06T12:35:41.193Z,3.30
2023-04-06T12:40:44.178Z,5.00
2023-04-06T12:45:45.687Z,3.80
2023-04-06T12:51:05.197Z,5.00
2023-04-06T12:56:14.838Z,4.30
2023-04-06T13:01:16.986Z,3.40
2023-04-06T13:06:18.660Z,4.10
2023-04-06T13:11:22.816Z,4.40
2023-04-06T13:21:25.922Z,5.40
2023-04-06T13:26:27.620Z,4.00
2023-04-06T13:31:29.933Z,3.90
2023-04-06T13:36:32.765Z,4.00
2023-04-06T13:41:34.323Z,4.30
2023-04-06T13:46:35.914Z,4.90
2023-04-06T13:51:37.447Z,5.40
2023-04-06T13:56:38.944Z,4.30
2023-04-06T14:01:40.809Z,3.40
2023-04-06T14:06:42.490Z,5.20
2023-04-06T14:11:43.982Z,4.20
2023-04-06T14:16:46.145Z,5.40
2023-04-06T14:21:49.498Z,5.80
2023-04-06T14:26:50.996Z,4.30
2023-04-06T14:31:52.487Z,4.50
2023-04-06T14:36:54.225Z,6.50
2023-04-06T14:41:55.711Z,4.40
2023-04-06T14:46:57.199Z,6.40
2023-04-06T14:52:00.434Z,4.40
2023-04-06T14:57:02.947Z,4.30
2023-04-06T15:02:04.732Z,5.70
2023-04-06T15:07:06.686Z,6.70
2023-04-06T15:12:08.561Z,4.50
2023-04-06T15:17:10.335Z,5.00
2023-04-06T15:22:12.535Z,4.40
2023-04-06T15:27:14.071Z,5.80
2023-04-06T15:32:15.872Z,4.70
2023-04-06T15:37:17.710Z,9.10
2023-04-06T15:42:19.227Z,5.50
2023-04-06T15:47:21.208Z,6.50
2023-04-06T15:52:22.937Z,7.60
2023-04-06T15:57:24.508Z,5.00
2023-04-06T16:02:26.756Z,5.00
2023-04-06T16:07:29.074Z,5.90
2023-04-06T16:12:33.944Z,5.60
2023-04-06T16:17:35.630Z,5.60
2023-04-06T16:22:37.124Z,7.10
2023-04-06T16:27:38.601Z,4.10
2023-04-06T16:32:40.135Z,6.60
2023-04-06T16:37:41.676Z,5.00
2023-04-06T16:42:44.072Z,6.00
2023-04-06T16:47:45.667Z,5.90
2023-04-06T16:52:47.282Z,5.80
2023-04-06T16:57:49.386Z,6.10
2023-04-06T17:02:51.325Z,4.60
2023-04-06T17:07:53.827Z,5.50
2023-04-06T17:12:55.377Z,5.50
2023-04-06T17:17:57.923Z,6.60
2023-04-06T17:22:59.665Z,5.80
2023-04-06T17:28:01.283Z,7.60
2023-04-06T17:33:02.981Z,5.20
2023-04-06T17:38:04.530Z,5.70
2023-04-06T17:43:06.079Z,7.60
2023-04-06T17:48:07.865Z,4.70
2023-04-06T17:53:09.507Z,7.20
2023-04-06T17:58:11.121Z,7.40
2023-04-06T18:03:12.619Z,6.40
2023-04-06T18:08:14.877Z,8.40
2023-04-06T18:13:17.147Z,10.50
2023-04-06T18:18:18.630Z,5.10
2023-04-06T18:23:20.251Z,7.50
2023-04-06T18:28:22.065Z,9.10
2023-04-06T18:33:23.677Z,6.70
2023-04-06T18:38:25.350Z,6.50
2023-04-06T18:43:26.947Z,9.10
2023-04-06T18:48:28.529Z,6.40
2023-04-06T18:53:30.344Z,9.20
2023-04-06T18:58:32.005Z,9.40
2023-04-06T19:03:33.755Z,9.90
2023-04-06T19:08:35.744Z,10.00
2023-04-06T19:13:39.122Z,10.10
2023-04-06T19:18:45.481Z,10.00
2023-04-06T19:23:50.168Z,7.70
2023-04-06T19:28:51.783Z,9.40
2023-04-06T19:33:53.437Z,7.40
2023-04-06T19:38:55.226Z,7.00
2023-04-06T19:43:56.753Z,11.10
2023-04-06T19:48:58.279Z,7.60
2023-04-06T19:54:00.930Z,5.10
2023-04-06T19:59:02.568Z,9.50
2023-04-06T20:04:04.155Z,6.00
2023-04-06T20:09:05.840Z,4.30
2023-04-06T20:14:07.550Z,7.10
2023-04-06T20:19:09.071Z,7.70
2023-04-06T20:24:11.659Z,6.00
2023-04-06T20:29:13.183Z,9.50
2023-04-06T20:34:14.880Z,7.20
2023-04-06T20:39:16.508Z,7.30
2023-04-06T20:44:19.200Z,5.50
2023-04-06T20:49:23.624Z,8.20
2023-04-06T20:54:25.692Z,10.20
2023-04-06T20:59:27.810Z,10.50
2023-04-06T21:04:29.453Z,8.40
2023-04-06T21:09:31.906Z,10.40
2023-04-06T21:14:34.302Z,11.00
2023-04-06T21:19:35.820Z,7.50
2023-04-06T21:24:37.376Z,10.70
2023-04-06T21:29:39.925Z,11.00
2023-04-06T21:34:42.636Z,8.90
2023-04-06T21:39:44.132Z,10.10
2023-04-06T21:44:45.604Z,12.00
2023-04-06T21:49:47.192Z,9.60
2023-04-06T21:54:48.814Z,9.80
2023-04-06T21:59:50.349Z,9.10
2023-04-06T22:04:52.024Z,12.10
2023-04-06T22:09:53.909Z,10.30
2023-04-06T22:14:55.585Z,10.80
2023-04-06T22:19:57.114Z,10.50
2023-04-06T22:25:00.465Z,9.70
2023-04-06T22:30:02.605Z,12.70
2023-04-06T22:35:04.310Z,9.00
2023-04-06T22:40:06.472Z,9.50
2023-04-06T22:45:09.704Z,12.10
2023-04-06T22:50:11.463Z,10.50
2023-04-06T22:55:12.997Z,8.00
2023-04-06T23:00:22.051Z,10.40
2023-04-06T23:05:23.707Z,10.80
2023-04-06T23:10:25.429Z,10.30
2023-04-06T23:15:27.168Z,11.80
2023-04-06T23:20:28.698Z,11.00
2023-04-06T23:25:30.439Z,6.30
2023-04-06T23:30:32.699Z,8.70
2023-04-06T23:35:34.491Z,8.50
2023-04-06T23:40:38.441Z,10.30
2023-04-06T23:45:42.137Z,8.80
2023-04-06T23:50:43.611Z,8.70
2023-04-06T23:55:45.275Z,12.20
